Time;durP1;ratioP1;P1;durP2;ratioP2;P2;SDS_P1;SDS_P2;PMS_P1;PMS_P2;Temp;Humidity;BMP_temperature;BMP_pressure;BME280_temperature;BME280_humidity;BME280_pressure;Samples;Min_cycle;Max_cycle;Signal;HPM_P1;HPM_P2
2022/03/10 00:03:49;;;;;;;26.53;11.13;;;;;;;2.93;63.42;101990.52;712855;1174;115387;-74
2022/03/10 00:18:51;;;;;;;14.03;6.37;;;;;;;2.69;63.78;101999.82;713038;1174;114737;-73
2022/03/10 00:33:53;;;;;;;36.15;13.70;;;;;;;2.39;64.22;101999.78;713286;1174;115007;-75
2022/03/10 00:48:55;;;;;;;11.40;5.40;;;;;;;2.11;64.45;102023.80;713347;1174;114433;-74
2022/03/10 01:03:57;;;;;;;9.03;5.38;;;;;;;2.02;64.81;102039.56;712837;1174;114991;-72
2022/03/10 01:18:59;;;;;;;11.63;5.98;;;;;;;1.82;64.49;102050.36;712887;1174;114721;-72
2022/03/10 01:34:01;;;;;;;7.00;4.20;;;;;;;1.80;64.49;102058.16;712879;1174;115715;-72
2022/03/10 01:49:05;;;;;;;10.75;4.75;;;;;;;1.68;63.63;102073.98;713182;1174;115697;-73
2022/03/10 02:04:08;;;;;;;7.48;4.08;;;;;;;1.53;64.39;102072.59;712862;1177;115272;-72
2022/03/10 02:19:10;;;;;;;10.80;4.50;;;;;;;1.23;63.75;102093.02;712944;1174;114501;-73
2022/03/10 02:34:12;;;;;;;7.80;4.10;;;;;;;1.08;64.54;102098.48;712863;1174;115894;-73
2022/03/10 02:49:15;;;;;;;10.45;4.95;;;;;;;0.94;64.08;102119.45;712928;1177;115259;-72
2022/03/10 03:04:17;;;;;;;7.65;4.58;;;;;;;0.75;64.37;102149.91;712926;1174;115218;-78
2022/03/10 03:19:19;;;;;;;10.40;4.63;;;;;;;0.64;65.16;102184.52;712941;1174;114889;-72
2022/03/10 03:34:22;;;;;;;8.23;4.20;;;;;;;0.53;63.87;102196.77;712917;1174;115528;-72
2022/03/10 03:49:26;;;;;;;8.85;4.45;;;;;;;0.40;64.34;102203.84;713110;1174;114745;-72
2022/03/10 04:04:27;;;;;;;10.57;5.20;;;;;;;0.25;63.41;102211.80;713138;1174;115325;-72
2022/03/10 04:19:30;;;;;;;8.13;4.30;;;;;;;0.08;63.11;102240.42;713012;1174;114906;-75
2022/03/10 04:34:32;;;;;;;13.17;4.63;;;;;;;0.01;63.14;102265.45;712923;1177;115690;-73
2022/03/10 04:49:34;;;;;;;10.68;5.78;;;;;;;-0.11;62.16;102275.94;713318;1175;115153;-72
2022/03/10 05:04:36;;;;;;;9.48;4.58;;;;;;;-0.22;63.15;102286.39;712990;1176;116030;-72
2022/03/10 05:19:38;;;;;;;12.57;4.90;;;;;;;-0.29;62.42;102313.97;713487;1177;115249;-76
2022/03/10 05:34:41;;;;;;;11.68;5.15;;;;;;;-0.28;61.56;102346.61;713602;1176;114392;-77
2022/03/10 05:49:43;;;;;;;12.88;5.65;;;;;;;-0.29;61.73;102347.51;713902;1174;114890;-82
2022/03/10 06:04:45;;;;;;;35.43;14.15;;;;;;;-0.23;61.68;102373.22;714316;1174;114686;-82
2022/03/10 06:19:49;;;;;;;18.18;8.13;;;;;;;-0.13;61.48;102397.23;714364;1174;116447;-82
2022/03/10 06:34:56;;;;;;;15.60;8.25;;;;;;;0.39;61.39;102411.30;714010;1174;116051;-81
2022/03/10 06:49:58;;;;;;;12.23;5.63;;;;;;;1.33;59.13;102425.58;714060;1176;115806;-86
2022/03/10 07:05:00;;;;;;;22.98;9.85;;;;;;;2.30;58.41;102455.89;714201;1174;115163;-75
2022/03/10 07:20:03;;;;;;;168.90;52.27;;;;;;;2.78;56.39;102471.34;713287;1174;115522;-74
2022/03/10 07:35:06;;;;;;;43.05;16.85;;;;;;;3.75;55.86;102470.06;713828;1176;116729;-85
2022/03/10 07:50:09;;;;;;;44.77;17.13;;;;;;;4.46;53.91;102469.11;714615;1174;115781;-82
2022/03/10 08:05:11;;;;;;;26.15;10.35;;;;;;;4.94;53.02;102467.73;714310;1175;114200;-82
2022/03/10 08:20:14;;;;;;;19.23;9.00;;;;;;;5.63;51.84;102479.52;714570;1174;113750;-82
2022/03/10 08:35:16;;;;;;;26.77;8.37;;;;;;;5.77;49.69;102471.27;714512;1174;115306;-83
2022/03/10 08:50:19;;;;;;;44.75;13.70;;;;;;;6.69;48.96;102467.25;714302;1176;114855;-81
2022/03/10 09:05:22;;;;;;;41.03;11.20;;;;;;;7.09;47.93;102465.73;714150;1175;115824;-81
2022/03/10 09:20:24;;;;;;;35.10;12.28;;;;;;;7.69;46.57;102469.48;713947;1177;114403;-82
2022/03/10 09:35:26;;;;;;;14.73;7.03;;;;;;;7.55;44.43;102470.89;714876;1175;115581;-82
2022/03/10 09:50:28;;;;;;;17.43;6.93;;;;;;;8.02;42.26;102479.44;714447;1174;114635;-75
2022/03/10 10:05:32;;;;;;;10.90;5.87;;;;;;;8.47;41.50;102489.72;713891;1174;115481;-76
2022/03/10 10:20:47;;;;;;;12.13;4.83;;;;;;;8.76;40.74;102495.42;725207;1174;114206;-75
2022/03/10 10:35:51;;;;;;;28.05;12.90;;;;;;;9.32;41.32;102492.84;716030;1174;114456;-75
2022/03/10 10:50:53;;;;;;;34.45;16.33;;;;;;;10.01;40.31;102488.60;714048;1174;115125;-75
2022/03/10 11:05:56;;;;;;;22.35;12.85;;;;;;;10.18;40.05;102492.98;714068;1174;115957;-74
2022/03/10 11:21:26;;;;;;;22.88;10.13;;;;;;;10.22;38.36;102499.77;713864;1174;115659;-71
2022/03/10 11:36:30;;;;;;;20.73;11.93;;;;;;;10.49;38.38;102489.66;714126;1174;115708;-73
2022/03/10 11:51:52;;;;;;;48.03;25.10;;;;;;;10.84;37.47;102493.95;714636;1174;116096;-71
2022/03/10 12:06:58;;;;;;;7.73;4.63;;;;;;;10.97;36.90;102486.25;714366;1175;116179;-72
2022/03/10 12:22:02;;;;;;;21.38;9.90;;;;;;;11.17;35.37;102479.89;714780;1175;116008;-73
2022/03/10 12:37:15;;;;;;;16.93;6.95;;;;;;;12.21;35.26;102479.23;713633;1174;115914;-75
2022/03/10 12:52:25;;;;;;;30.00;11.10;;;;;;;12.39;34.78;102472.86;713617;1177;115665;-72
2022/03/10 13:07:31;;;;;;;13.90;6.35;;;;;;;12.42;33.66;102469.19;714030;1176;114513;-75
2022/03/10 13:22:33;;;;;;;19.83;9.53;;;;;;;12.91;32.23;102454.75;713667;1174;115637;-85
2022/03/10 13:37:36;;;;;;;41.98;13.23;;;;;;;14.09;33.62;102454.00;713800;1177;115276;-84
2022/03/10 13:52:38;;;;;;;141.47;52.40;;;;;;;20.49;30.28;102434.45;713459;1177;115864;-74
2022/03/10 14:07:40;;;;;;;102.30;44.75;;;;;;;24.15;28.07;102444.59;713803;1177;116398;-72
2022/03/10 14:22:44;;;;;;;55.98;21.93;;;;;;;24.31;26.86;102430.27;713143;1175;116417;-73
2022/03/10 14:37:47;;;;;;;30.23;13.80;;;;;;;24.88;26.29;102425.61;713702;1176;115253;-75
2022/03/10 14:52:50;;;;;;;17.50;9.23;;;;;;;25.86;26.50;102440.00;713402;1175;116159;-73
2022/03/10 15:07:52;;;;;;;105.40;44.77;;;;;;;24.74;25.77;102427.20;713843;1175;115002;-73
2022/03/10 15:22:55;;;;;;;60.93;29.28;;;;;;;23.73;26.07;102434.96;713549;1176;115682;-82
2022/03/10 15:37:58;;;;;;;40.73;19.00;;;;;;;15.04;28.96;102421.83;714817;1175;114952;-82
2022/03/10 15:53:01;;;;;;;56.48;28.30;;;;;;;13.27;30.02;102434.86;716074;1175;114858;-84
2022/03/10 16:08:06;;;;;;;52.65;21.05;;;;;;;18.29;30.07;102446.43;713746;1177;115967;-83
2022/03/10 16:23:09;;;;;;;220.23;73.03;;;;;;;16.23;29.58;102457.06;713468;1174;116107;-83
2022/03/10 16:38:11;;;;;;;182.85;55.85;;;;;;;10.46;32.12;102462.72;713486;1175;115619;-75
2022/03/10 16:53:15;;;;;;;147.75;51.65;;;;;;;7.85;34.23;102467.08;713349;1174;115314;-76
2022/03/10 17:08:18;;;;;;;88.60;32.68;;;;;;;6.34;35.76;102487.61;714362;1174;114461;-77
2022/03/10 17:23:20;;;;;;;430.93;167.07;;;;;;;5.37;36.45;102494.23;714867;1174;115846;-77
2022/03/10 17:38:24;;;;;;;175.28;58.53;;;;;;;4.56;38.38;102506.09;713935;1177;115636;-76
2022/03/10 17:53:28;;;;;;;213.43;77.80;;;;;;;4.32;39.66;102512.80;713446;1176;115672;-70
2022/03/10 18:08:31;;;;;;;198.25;59.28;;;;;;;3.99;40.36;102516.20;713580;1174;115915;-71
2022/03/10 18:23:35;;;;;;;189.97;61.70;;;;;;;3.74;40.18;102512.52;713885;1176;115392;-70
2022/03/10 18:38:39;;;;;;;107.55;41.50;;;;;;;3.50;40.80;102523.42;713746;1177;115724;-70
2022/03/10 18:53:42;;;;;;;45.50;18.95;;;;;;;3.25;41.30;102530.05;713466;1176;115868;-70
2022/03/10 19:08:45;;;;;;;56.08;26.30;;;;;;;2.80;41.95;102536.15;713720;1174;115170;-70
2022/03/10 19:23:47;;;;;;;75.67;23.40;;;;;;;2.41;42.09;102534.25;713403;1174;114736;-70
2022/03/10 19:38:50;;;;;;;32.88;16.43;;;;;;;2.05;43.09;102521.06;714332;1175;116360;-70
2022/03/10 19:53:54;;;;;;;65.93;31.58;;;;;;;1.89;42.78;102524.77;713883;1177;115265;-73
2022/03/10 20:08:56;;;;;;;115.98;32.80;;;;;;;1.80;43.08;102523.20;714437;1177;114345;-78
2022/03/10 20:23:58;;;;;;;31.90;10.60;;;;;;;1.59;43.55;102527.80;714444;1176;115719;-78
2022/03/10 20:39:01;;;;;;;90.80;30.10;;;;;;;1.48;43.83;102543.48;720673;1176;115063;-80
2022/03/10 20:54:03;;;;;;;61.88;22.20;;;;;;;1.35;43.98;102531.59;715103;1176;114873;-79
2022/03/10 21:09:06;;;;;;;137.03;39.23;;;;;;;1.17;44.05;102540.44;713923;1175;115065;-80
2022/03/10 21:24:08;;;;;;;173.63;50.15;;;;;;;1.05;43.58;102553.53;713920;1174;114700;-79
2022/03/10 21:39:11;;;;;;;67.93;22.78;;;;;;;0.86;44.18;102558.91;714049;1175;114969;-79
2022/03/10 21:54:14;;;;;;;89.93;28.18;;;;;;;0.77;45.04;102562.44;714155;1175;115121;-80
2022/03/10 22:09:20;;;;;;;49.65;16.30;;;;;;;0.70;45.40;102568.56;714246;1175;115529;-79
2022/03/10 22:24:24;;;;;;;45.70;14.33;;;;;;;0.55;44.99;102559.22;715100;1177;115140;-78
2022/03/10 22:39:28;;;;;;;42.30;13.43;;;;;;;0.35;45.03;102567.16;715482;1177;114681;-79
2022/03/10 22:54:32;;;;;;;43.50;11.80;;;;;;;0.21;45.46;102561.25;714500;1175;115244;-80
2022/03/10 23:09:37;;;;;;;33.03;11.83;;;;;;;0.14;45.29;102566.45;715229;1176;115923;-80
2022/03/10 23:24:41;;;;;;;17.05;6.75;;;;;;;-0.18;46.26;102564.13;714865;1177;114716;-80
2022/03/10 23:39:46;;;;;;;12.83;5.78;;;;;;;-0.22;46.67;102563.28;714249;1174;115119;-80
2022/03/10 23:54:50;;;;;;;34.93;10.70;;;;;;;-0.35;46.89;102571.97;713727;1175;115163;-81
